Time;durP1;ratioP1;P1;durP2;ratioP2;P2;SDS_P1;SDS_P2;PMS_P1;PMS_P2;Temp;Humidity;BMP_temperature;BMP_pressure;BME280_temperature;BME280_humidity;BME280_pressure;Samples;Min_cycle;Max_cycle;Signal;HPM_P1;HPM_P2
2022/12/06 00:01:35;;;;;;;11.20;6.45;;;4.90;99.90;;;;;;5096555;28;20062;-76
2022/12/06 00:04:06;;;;;;;10.60;6.75;;;5.00;99.90;;;;;;5096260;28;20047;-74
2022/12/06 00:06:35;;;;;;;12.18;7.28;;;5.00;99.90;;;;;;5096809;28;20036;-74
2022/12/06 00:09:01;;;;;;;15.32;6.88;;;5.00;99.90;;;;;;5096498;28;20083;-73
2022/12/06 00:11:32;;;;;;;11.00;6.43;;;5.70;99.90;;;;;;5096403;28;20040;-73
2022/12/06 00:14:00;;;;;;;15.15;6.18;;;5.00;99.90;;;;;;5096400;28;20093;-74
2022/12/06 00:16:27;;;;;;;12.45;5.93;;;5.00;99.90;;;;;;5096227;28;20087;-74
2022/12/06 00:18:53;;;;;;;12.43;6.15;;;5.10;99.90;;;;;;5096071;28;20048;-72
2022/12/06 00:21:29;;;;;;;9.48;5.90;;;5.00;99.90;;;;;;5096176;28;20471;-75
2022/12/06 00:24:00;;;;;;;15.00;5.90;;;5.00;99.90;;;;;;5096565;28;20507;-73
2022/12/06 00:26:27;;;;;;;11.70;6.43;;;5.00;99.90;;;;;;5096212;28;20044;-73
2022/12/06 00:28:55;;;;;;;11.52;6.03;;;5.00;99.90;;;;;;5096132;28;20403;-73
2022/12/06 00:31:22;;;;;;;13.38;5.88;;;5.10;99.90;;;;;;5096098;28;20051;-74
2022/12/06 00:33:48;;;;;;;12.13;6.05;;;4.90;99.90;;;;;;5096044;28;20048;-73
2022/12/06 00:36:19;;;;;;;12.50;5.40;;;4.90;99.90;;;;;;5095958;28;20040;-73
2022/12/06 00:38:45;;;;;;;11.02;5.78;;;5.00;99.90;;;;;;5096226;28;20392;-74
2022/12/06 00:41:14;;;;;;;11.03;5.50;;;5.00;99.90;;;;;;5095932;28;20127;-74
2022/12/06 00:43:39;;;;;;;8.40;4.80;;;5.10;99.90;;;;;;5095844;28;20127;-74
2022/12/06 00:46:07;;;;;;;11.13;5.47;;;5.00;99.90;;;;;;5095828;28;20137;-75
2022/12/06 00:48:34;;;;;;;8.27;4.85;;;5.20;99.90;;;;;;5095811;28;20090;-75
2022/12/06 00:50:59;;;;;;;11.33;5.50;;;5.00;99.90;;;;;;5096099;28;20050;-74
2022/12/06 00:53:26;;;;;;;9.70;5.00;;;5.00;99.90;;;;;;5094440;28;20047;-75
2022/12/06 00:55:52;;;;;;;12.00;5.03;;;5.00;99.90;;;;;;5095428;28;20089;-75
2022/12/06 00:58:17;;;;;;;9.43;5.00;;;5.10;99.90;;;;;;5095118;28;20039;-75
2022/12/06 01:00:44;;;;;;;10.60;4.72;;;5.00;99.90;;;;;;5095456;28;20040;-74
2022/12/06 01:03:10;;;;;;;10.75;5.00;;;5.00;99.90;;;;;;5095876;28;20040;-75
2022/12/06 01:05:44;;;;;;;9.35;5.70;;;5.00;99.90;;;;;;5095681;28;20040;-74
2022/12/06 01:08:11;;;;;;;12.55;5.30;;;5.00;99.90;;;;;;5095243;28;20044;-74
2022/12/06 01:10:37;;;;;;;14.13;4.95;;;5.00;99.90;;;;;;5094989;28;20127;-75
2022/12/06 01:13:04;;;;;;;9.18;5.22;;;5.10;99.90;;;;;;5094998;28;20544;-75
2022/12/06 01:15:30;;;;;;;14.77;6.00;;;5.00;99.90;;;;;;5094945;28;20492;-75
2022/12/06 01:17:56;;;;;;;12.07;5.18;;;5.00;99.90;;;;;;5095255;28;20040;-74
2022/12/06 01:20:21;;;;;;;7.72;5.07;;;5.00;99.90;;;;;;5095058;28;20044;-74
2022/12/06 01:22:47;;;;;;;12.25;5.75;;;5.00;99.90;;;;;;5095326;28;20476;-75
2022/12/06 01:25:12;;;;;;;10.18;5.60;;;5.00;99.90;;;;;;5094936;28;20050;-74
2022/12/06 01:27:38;;;;;;;8.90;4.63;;;5.00;99.90;;;;;;5095164;28;20119;-73
2022/12/06 01:30:05;;;;;;;12.27;5.20;;;5.00;99.90;;;;;;5094907;28;20055;-75
2022/12/06 01:32:30;;;;;;;;;;;5.00;99.90;;;;;;5094740;28;20052;-74
2022/12/06 01:34:56;;;;;;;12.18;5.25;;;5.00;99.90;;;;;;5094804;28;20006;-74
2022/12/06 01:37:22;;;;;;;10.93;4.35;;;5.00;99.90;;;;;;5094803;28;20500;-74
2022/12/06 01:39:47;;;;;;;7.82;3.90;;;4.90;99.90;;;;;;5093735;28;20145;-73
2022/12/06 01:42:14;;;;;;;7.75;4.13;;;4.90;99.90;;;;;;5094456;28;20044;-75
2022/12/06 01:44:41;;;;;;;;;;;5.70;99.90;;;;;;5095119;28;20040;-75
2022/12/06 01:47:29;;;;;;;11.88;4.65;;;4.90;99.90;;;;;;5094370;28;20403;-74
2022/12/06 01:50:08;;;;;;;7.55;4.38;;;4.90;99.90;;;;;;5094900;28;20044;-75
2022/12/06 01:52:52;;;;;;;8.88;4.40;;;4.90;99.90;;;;;;5094594;28;20048;-75
2022/12/06 01:55:20;;;;;;;12.25;3.88;;;4.90;99.90;;;;;;5094516;28;20446;-73
2022/12/06 01:57:49;;;;;;;9.60;4.40;;;4.90;99.90;;;;;;5094416;28;20054;-75
2022/12/06 02:00:14;;;;;;;11.00;4.93;;;4.90;99.90;;;;;;5094272;28;20048;-74
2022/12/06 02:02:40;;;;;;;7.32;4.57;;;4.90;99.90;;;;;;5094450;28;20475;-74
2022/12/06 02:05:07;;;;;;;11.23;4.28;;;4.90;99.90;;;;;;5094214;28;20391;-74
2022/12/06 02:07:32;;;;;;;12.05;4.60;;;4.90;99.90;;;;;;5094198;28;20055;-75
2022/12/06 02:09:58;;;;;;;11.93;4.60;;;4.90;99.90;;;;;;5094194;28;20052;-74
2022/12/06 02:12:24;;;;;;;9.90;4.60;;;4.90;99.90;;;;;;5094197;28;20510;-74
2022/12/06 02:14:53;;;;;;;11.35;4.57;;;4.90;99.90;;;;;;5094192;28;20610;-75
2022/12/06 02:17:38;;;;;;;10.50;4.45;;;5.00;99.90;;;;;;5094157;28;20036;-75
2022/12/06 02:20:26;;;;;;;10.18;4.53;;;5.00;99.90;;;;;;5093992;28;20388;-75
2022/12/06 02:23:28;;;;;;;11.38;4.53;;;5.00;99.90;;;;;;5093481;28;20048;-75
2022/12/06 02:26:12;;;;;;;12.20;4.63;;;5.00;99.90;;;;;;5093732;28;20063;-75
2022/12/06 02:29:00;;;;;;;10.35;4.40;;;5.00;99.90;;;;;;5094489;28;20079;-75
2022/12/06 02:31:27;;;;;;;;;;;5.00;99.90;;;;;;5094038;28;20472;-74
2022/12/06 02:34:06;;;;;;;7.13;4.55;;;5.00;99.90;;;;;;5094137;28;19963;-74
2022/12/06 02:36:47;;;;;;;8.70;4.40;;;5.00;99.90;;;;;;5093890;28;20083;-75
2022/12/06 02:39:43;;;;;;;6.68;3.67;;;4.90;99.90;;;;;;5094258;28;20044;-75
2022/12/06 02:42:17;;;;;;;16.10;4.65;;;5.00;99.90;;;;;;5093745;28;20091;-74
2022/12/06 02:44:49;;;;;;;10.80;4.13;;;4.90;99.90;;;;;;5093693;28;20043;-75
2022/12/06 02:47:18;;;;;;;9.20;4.30;;;4.90;99.90;;;;;;5093700;28;20072;-74
2022/12/06 02:49:48;;;;;;;7.53;4.10;;;4.90;99.90;;;;;;5093301;28;20499;-74
2022/12/06 02:52:15;;;;;;;13.70;4.97;;;4.90;99.90;;;;;;5093602;28;20040;-75
2022/12/06 02:54:44;;;;;;;10.88;4.25;;;4.90;99.90;;;;;;5093652;28;20040;-75
2022/12/06 02:57:09;;;;;;;7.85;4.53;;;4.90;99.90;;;;;;5093601;28;20507;-75
2022/12/06 02:59:35;;;;;;;7.80;4.05;;;4.90;99.90;;;;;;5093602;28;20040;-74
2022/12/06 03:02:02;;;;;;;7.75;4.30;;;4.90;99.90;;;;;;5093332;28;20055;-74
2022/12/06 03:05:07;;;;;;;8.98;4.15;;;4.90;99.90;;;;;;5093623;28;20040;-74
2022/12/06 03:07:41;;;;;;;5.97;4.10;;;4.90;99.90;;;;;;5093355;28;20373;-75
2022/12/06 03:10:26;;;;;;;10.25;4.45;;;4.90;99.90;;;;;;5093465;28;20048;-75
2022/12/06 03:13:00;;;;;;;8.95;3.88;;;4.90;99.90;;;;;;5093458;28;20094;-75
2022/12/06 03:15:41;;;;;;;5.13;3.80;;;4.90;99.90;;;;;;5093793;28;20084;-74
2022/12/06 03:18:34;;;;;;;9.20;4.45;;;4.90;99.90;;;;;;5093494;28;20047;-74
2022/12/06 03:21:06;;;;;;;10.18;4.35;;;4.90;99.90;;;;;;5093435;28;20080;-75
2022/12/06 03:23:38;;;;;;;10.02;3.90;;;4.90;99.90;;;;;;5093081;28;20051;-74
2022/12/06 03:26:05;;;;;;;6.85;3.85;;;4.90;99.90;;;;;;5093311;28;20499;-74
2022/12/06 03:28:35;;;;;;;9.30;4.07;;;4.90;99.90;;;;;;5093170;28;20056;-74
2022/12/06 03:31:04;;;;;;;8.45;3.72;;;4.90;99.90;;;;;;5093266;28;20040;-75
2022/12/06 03:33:33;;;;;;;7.28;3.78;;;5.00;99.90;;;;;;5095534;28;20400;-74
2022/12/06 03:36:00;;;;;;;6.50;3.85;;;4.80;99.90;;;;;;5097174;28;20404;-74
2022/12/06 03:38:33;;;;;;;7.35;3.58;;;4.80;99.90;;;;;;5096846;28;20051;-74
2022/12/06 03:41:02;;;;;;;9.05;4.20;;;4.80;99.90;;;;;;5096774;28;20476;-75
2022/12/06 03:43:28;;;;;;;7.43;4.03;;;4.80;99.90;;;;;;5096991;28;20264;-75
2022/12/06 03:46:15;;;;;;;6.45;3.75;;;4.80;99.90;;;;;;5096799;28;20589;-74
2022/12/06 03:48:43;;;;;;;7.20;3.97;;;4.80;99.90;;;;;;5097263;28;20060;-74
2022/12/06 03:51:24;;;;;;;8.18;3.75;;;4.80;99.90;;;;;;5096781;28;20036;-75
2022/12/06 03:53:53;;;;;;;8.50;3.42;;;4.80;99.90;;;;;;5096577;28;20488;-74
2022/12/06 03:56:20;;;;;;;6.30;3.58;;;4.80;99.90;;;;;;5096662;28;20055;-74
2022/12/06 03:58:45;;;;;;;8.50;3.72;;;4.80;99.90;;;;;;5097226;28;20052;-74
2022/12/06 04:01:11;;;;;;;4.53;3.03;;;4.80;99.90;;;;;;5096669;28;20131;-74
2022/12/06 04:03:37;;;;;;;8.60;3.53;;;4.80;99.90;;;;;;5096963;28;20120;-75
2022/12/06 04:06:06;;;;;;;4.63;3.40;;;4.70;99.90;;;;;;5096565;28;20040;-74
2022/12/06 04:08:32;;;;;;;5.38;3.45;;;4.70;99.90;;;;;;5096706;28;20535;-75
2022/12/06 04:10:58;;;;;;;6.03;3.70;;;4.70;99.90;;;;;;5096243;28;20076;-75
2022/12/06 04:13:24;;;;;;;5.90;3.10;;;4.70;99.90;;;;;;5096463;28;20480;-74
2022/12/06 04:15:54;;;;;;;5.25;2.92;;;4.70;99.90;;;;;;5096393;28;20067;-74
2022/12/06 04:18:21;;;;;;;8.30;3.63;;;4.70;99.90;;;;;;5096359;28;20036;-74
2022/12/06 04:23:40;;;;;;;6.38;3.40;;;4.70;99.90;;;;;;5096238;28;20052;-74
2022/12/06 04:26:08;;;;;;;5.13;3.35;;;4.60;99.90;;;;;;5096157;28;20087;-74
2022/12/06 04:39:32;;;;;;;5.07;2.92;;;4.60;99.90;;;;;;5095709;28;20052;-73
2022/12/06 04:44:42;;;;;;;5.18;3.03;;;4.60;99.90;;;;;;5095647;28;20048;-74
2022/12/06 04:47:08;;;;;;;6.63;2.95;;;4.60;99.90;;;;;;5095831;28;20040;-75
2022/12/06 04:49:35;;;;;;;6.80;2.90;;;4.60;99.90;;;;;;5095761;28;20044;-74
2022/12/06 04:52:01;;;;;;;4.17;2.63;;;4.60;99.90;;;;;;5095689;28;20044;-73
2022/12/06 04:54:28;;;;;;;5.07;2.70;;;4.60;99.90;;;;;;5095695;28;20059;-75
2022/12/06 04:56:56;;;;;;;5.05;2.85;;;4.60;99.90;;;;;;5095514;28;20055;-76
2022/12/06 04:59:21;;;;;;;;;;;4.60;99.90;;;;;;5096000;28;20123;-74
2022/12/06 05:01:47;;;;;;;3.70;2.65;;;4.60;99.90;;;;;;5095070;28;20007;-76
2022/12/06 05:04:12;;;;;;;5.00;2.80;;;4.60;99.90;;;;;;5095476;28;20059;-74
2022/12/06 05:06:38;;;;;;;4.05;3.00;;;4.60;99.90;;;;;;5095283;28;20446;-74
2022/12/06 05:09:04;;;;;;;4.82;2.95;;;4.60;99.90;;;;;;5095157;28;20044;-74
2022/12/06 05:11:31;;;;;;;6.90;3.22;;;4.60;99.90;;;;;;5095161;28;20076;-74
2022/12/06 05:13:57;;;;;;;;;;;4.60;99.90;;;;;;5095605;28;20131;-75
2022/12/06 05:16:23;;;;;;;7.13;3.00;;;4.60;99.90;;;;;;5095597;28;19942;-74
2022/12/06 05:18:48;;;;;;;3.30;2.80;;;4.50;99.90;;;;;;5095431;28;20472;-73
2022/12/06 05:21:17;;;;;;;3.20;2.65;;;4.50;99.90;;;;;;5095081;28;20073;-74
2022/12/06 05:23:43;;;;;;;2.90;2.40;;;4.50;99.90;;;;;;5094986;28;20040;-75
2022/12/06 05:26:15;;;;;;;4.33;2.80;;;4.50;99.90;;;;;;5094518;28;20496;-74
2022/12/06 05:28:41;;;;;;;6.47;3.00;;;4.50;99.90;;;;;;5095031;28;20043;-75
2022/12/06 05:31:07;;;;;;;6.73;3.00;;;4.50;99.90;;;;;;5094993;28;20404;-75
2022/12/06 05:33:32;;;;;;;4.43;3.08;;;4.50;99.90;;;;;;5094715;28;20043;-75
2022/12/06 05:35:58;;;;;;;4.55;2.90;;;4.40;99.90;;;;;;5094778;28;20048;-74
2022/12/06 05:38:24;;;;;;;4.18;2.50;;;4.40;99.90;;;;;;5094781;28;20032;-74
2022/12/06 05:40:50;;;;;;;4.43;3.20;;;4.40;99.90;;;;;;5094603;28;20075;-73
2022/12/06 05:43:16;;;;;;;4.30;2.75;;;4.40;99.90;;;;;;5094717;28;20044;-74
2022/12/06 05:45:42;;;;;;;3.50;2.95;;;4.40;99.90;;;;;;5094819;28;20418;-75
2022/12/06 05:48:08;;;;;;;3.85;3.00;;;4.40;99.90;;;;;;5095084;28;20455;-75
2022/12/06 05:50:35;;;;;;;4.75;2.85;;;4.40;99.90;;;;;;5094690;28;20047;-75
2022/12/06 05:53:01;;;;;;;4.38;2.92;;;4.40;99.90;;;;;;5094560;28;20055;-74
2022/12/06 05:55:27;;;;;;;3.38;2.72;;;4.40;99.90;;;;;;5094271;28;20081;-73
2022/12/06 05:57:53;;;;;;;8.07;3.00;;;4.40;99.90;;;;;;5093851;28;20479;-75
2022/12/06 06:00:20;;;;;;;3.47;2.92;;;4.40;99.90;;;;;;5094147;28;20043;-75
2022/12/06 06:02:46;;;;;;;3.30;3.00;;;4.40;99.90;;;;;;5094446;28;20454;-74
2022/12/06 06:05:13;;;;;;;3.80;2.97;;;4.40;99.90;;;;;;5094328;28;20286;-74
2022/12/06 06:07:38;;;;;;;;;;;4.40;99.90;;;;;;5094728;28;20035;-74
2022/12/06 06:10:05;;;;;;;3.90;2.67;;;4.40;99.90;;;;;;5094237;28;20265;-75
2022/12/06 06:12:31;;;;;;;6.25;3.20;;;4.40;99.90;;;;;;5095057;28;20494;-74
2022/12/06 06:14:57;;;;;;;5.60;2.67;;;4.40;99.90;;;;;;5093523;28;20040;-74
2022/12/06 06:17:23;;;;;;;3.92;3.05;;;4.30;99.90;;;;;;5094216;28;20515;-75
2022/12/06 06:19:49;;;;;;;5.13;2.75;;;4.30;99.90;;;;;;5094789;28;20051;-74
2022/12/06 06:22:14;;;;;;;4.20;3.17;;;4.40;99.90;;;;;;5094576;28;20376;-75
2022/12/06 06:24:41;;;;;;;3.45;2.90;;;4.40;99.90;;;;;;5093333;28;20055;-75
2022/12/06 06:27:07;;;;;;;;;;;4.40;99.90;;;;;;5094551;28;20059;-75
2022/12/06 06:29:33;;;;;;;7.63;3.20;;;4.70;99.90;;;;;;5094017;28;19920;-75
2022/12/06 06:31:59;;;;;;;4.80;2.97;;;4.30;99.90;;;;;;5093888;28;20353;-74
2022/12/06 06:34:25;;;;;;;3.70;2.97;;;4.30;99.90;;;;;;5093937;28;20032;-74
2022/12/06 06:36:51;;;;;;;4.63;3.03;;;4.30;99.90;;;;;;5093929;28;20135;-74
2022/12/06 06:39:17;;;;;;;5.55;3.15;;;4.30;99.90;;;;;;5093693;28;20309;-74
2022/12/06 06:41:43;;;;;;;4.83;3.20;;;4.30;99.90;;;;;;5093783;28;20127;-74
2022/12/06 06:44:09;;;;;;;3.95;3.30;;;4.30;99.90;;;;;;5093854;28;20278;-72
2022/12/06 06:46:35;;;;;;;3.57;2.97;;;4.30;99.90;;;;;;5093828;28;20055;-73
2022/12/06 06:49:01;;;;;;;5.05;3.33;;;4.30;99.90;;;;;;5093766;28;20278;-73
2022/12/06 06:51:26;;;;;;;5.72;3.40;;;4.30;99.90;;;;;;5093740;28;20415;-74
2022/12/06 06:53:52;;;;;;;7.93;3.28;;;4.40;99.90;;;;;;5093617;28;20048;-72
2022/12/06 06:56:19;;;;;;;3.85;2.95;;;4.30;99.90;;;;;;5093686;28;20044;-73
2022/12/06 06:58:44;;;;;;;4.65;3.15;;;4.20;99.90;;;;;;5094000;28;20047;-74
2022/12/06 07:01:16;;;;;;;7.97;3.53;;;4.20;99.90;;;;;;5093456;28;20044;-74
2022/12/06 07:03:42;;;;;;;5.97;3.50;;;4.20;99.90;;;;;;5093681;28;20044;-72
2022/12/06 07:06:09;;;;;;;5.35;3.70;;;4.20;99.90;;;;;;5093509;28;20048;-73
2022/12/06 07:08:35;;;;;;;5.53;3.65;;;4.20;99.90;;;;;;5096052;28;20052;-73
2022/12/06 07:11:01;;;;;;;5.43;3.33;;;4.20;99.90;;;;;;5097591;28;20491;-73
2022/12/06 07:13:28;;;;;;;5.63;3.30;;;4.20;99.90;;;;;;5097594;28;20125;-73
2022/12/06 07:15:54;;;;;;;4.22;3.17;;;4.10;99.90;;;;;;5097463;28;20074;-74
2022/12/06 07:18:20;;;;;;;3.72;2.90;;;4.20;99.90;;;;;;5097508;28;20051;-73
2022/12/06 07:20:46;;;;;;;7.45;3.20;;;4.20;99.90;;;;;;5097388;28;20075;-72
2022/12/06 07:23:13;;;;;;;4.38;3.20;;;4.20;99.90;;;;;;5097225;28;20144;-74
2022/12/06 07:25:39;;;;;;;5.32;3.78;;;4.20;99.90;;;;;;5097473;28;20051;-73
2022/12/06 07:28:05;;;;;;;4.30;3.25;;;4.20;99.90;;;;;;5097351;28;20115;-74
2022/12/06 07:30:30;;;;;;;5.72;3.45;;;4.10;99.90;;;;;;5097485;28;20069;-74
2022/12/06 07:32:56;;;;;;;5.80;3.20;;;4.10;99.90;;;;;;5097195;28;20048;-74
2022/12/06 07:35:22;;;;;;;4.00;3.30;;;4.10;99.90;;;;;;5097136;28;20123;-75
2022/12/06 07:37:47;;;;;;;4.18;3.03;;;4.10;99.90;;;;;;5096592;28;20472;-76
2022/12/06 07:40:14;;;;;;;4.35;3.15;;;4.10;99.90;;;;;;5097021;28;20036;-73
2022/12/06 07:45:24;;;;;;;4.72;3.55;;;4.10;99.90;;;;;;5097028;28;20380;-77
2022/12/06 07:47:50;;;;;;;5.97;3.13;;;4.10;99.90;;;;;;5097046;28;20050;-77
2022/12/06 07:50:21;;;;;;;3.63;3.13;;;4.00;99.90;;;;;;5095924;28;20134;-77
2022/12/06 07:52:49;;;;;;;5.93;3.85;;;4.00;99.90;;;;;;5097204;28;20047;-79
2022/12/06 07:55:16;;;;;;;4.72;3.00;;;4.00;99.90;;;;;;5096631;28;20036;-75
2022/12/06 07:57:42;;;;;;;5.55;3.40;;;3.90;99.90;;;;;;5096961;28;20063;-75
2022/12/06 08:00:10;;;;;;;5.00;3.42;;;3.80;99.90;;;;;;5096763;28;20040;-75
2022/12/06 08:02:36;;;;;;;7.35;3.30;;;3.80;99.90;;;;;;5096410;28;20487;-74
2022/12/06 08:05:02;;;;;;;4.90;3.40;;;3.70;99.90;;;;;;5096640;28;20040;-78
2022/12/06 08:07:27;;;;;;;4.47;3.42;;;3.70;99.90;;;;;;5096684;28;20044;-77
2022/12/06 08:09:53;;;;;;;4.32;3.35;;;3.70;99.90;;;;;;5096647;28;20048;-77
2022/12/06 08:12:20;;;;;;;3.80;3.20;;;3.60;99.90;;;;;;5096687;28;20436;-77
2022/12/06 08:14:46;;;;;;;5.28;3.25;;;3.60;99.90;;;;;;5095299;28;20130;-77
2022/12/06 08:17:12;;;;;;;6.45;3.55;;;3.50;99.90;;;;;;5096467;28;20432;-78
2022/12/06 08:19:38;;;;;;;4.93;3.28;;;3.50;99.90;;;;;;5095275;28;20055;-75
2022/12/06 08:22:03;;;;;;;5.18;3.70;;;3.40;99.90;;;;;;5096217;28;20043;-76
2022/12/06 08:24:29;;;;;;;5.55;3.28;;;3.40;99.90;;;;;;5096257;28;20040;-74
2022/12/06 08:26:55;;;;;;;4.13;3.40;;;3.30;99.90;;;;;;5096203;28;20055;-75
2022/12/06 08:29:21;;;;;;;5.80;3.85;;;3.30;99.90;;;;;;5096265;28;20056;-74
2022/12/06 08:31:47;;;;;;;4.27;3.60;;;3.30;99.90;;;;;;5095197;28;20051;-75
2022/12/06 08:34:14;;;;;;;5.95;3.78;;;3.20;99.90;;;;;;5095835;28;20039;-73
2022/12/06 08:36:40;;;;;;;;;;;3.20;99.90;;;;;;5094651;28;20051;-76
2022/12/06 08:39:06;;;;;;;4.47;3.58;;;3.10;99.90;;;;;;5096220;28;19950;-76
2022/12/06 08:44:17;;;;;;;4.30;3.72;;;3.10;99.90;;;;;;5095847;28;20055;-74
2022/12/06 08:46:44;;;;;;;5.43;4.00;;;3.00;99.90;;;;;;5095506;28;20044;-76
2022/12/06 08:49:12;;;;;;;8.43;5.00;;;3.00;99.90;;;;;;5096337;28;20392;-74
2022/12/06 08:51:37;;;;;;;7.80;4.18;;;3.00;99.90;;;;;;5095655;28;20047;-75
2022/12/06 08:54:05;;;;;;;6.10;4.40;;;3.00;99.90;;;;;;5095974;28;20392;-76
2022/12/06 08:56:30;;;;;;;9.13;5.57;;;3.30;99.90;;;;;;5095680;28;20063;-76
2022/12/06 08:58:56;;;;;;;11.57;6.75;;;3.00;99.90;;;;;;5095547;28;20466;-74
2022/12/06 09:01:25;;;;;;;18.30;10.80;;;3.10;99.90;;;;;;5095521;28;20110;-75
2022/12/06 09:03:52;;;;;;;17.08;8.55;;;3.10;99.90;;;;;;5095453;28;20082;-74
2022/12/06 09:06:18;;;;;;;10.45;6.43;;;3.20;99.90;;;;;;5095123;28;20468;-75
2022/12/06 09:08:45;;;;;;;8.70;4.85;;;3.20;99.90;;;;;;5095158;28;20044;-73
2022/12/06 09:11:11;;;;;;;5.93;4.43;;;3.20;99.90;;;;;;5095318;28;20044;-77
2022/12/06 09:13:38;;;;;;;8.77;5.30;;;3.30;99.90;;;;;;5095322;28;20048;-75
2022/12/06 09:16:16;;;;;;;8.80;5.45;;;3.30;99.90;;;;;;5095321;28;20123;-75
2022/12/06 09:18:43;;;;;;;8.90;5.65;;;3.50;99.90;;;;;;5095036;28;20553;-74
2022/12/06 09:21:12;;;;;;;7.53;4.72;;;3.50;99.90;;;;;;5095427;28;20052;-76
2022/12/06 09:23:38;;;;;;;7.15;4.60;;;3.50;99.90;;;;;;5095325;28;20044;-76
2022/12/06 09:26:05;;;;;;;5.82;4.45;;;3.50;99.90;;;;;;5094641;28;20055;-76
2022/12/06 09:28:32;;;;;;;;;;;3.60;99.90;;;;;;5095718;28;20127;-74
2022/12/06 09:30:58;;;;;;;5.53;4.18;;;3.60;99.90;;;;;;5095065;28;19943;-74
2022/12/06 09:33:23;;;;;;;9.30;4.32;;;3.70;99.90;;;;;;5095294;28;20040;-76
2022/12/06 09:35:50;;;;;;;5.28;4.18;;;3.70;99.90;;;;;;5095045;28;20058;-73
2022/12/06 09:38:20;;;;;;;6.80;4.43;;;3.90;99.90;;;;;;5094671;28;20044;-74
2022/12/06 09:41:15;;;;;;;8.52;4.53;;;3.80;99.90;;;;;;5095085;28;20040;-75
2022/12/06 09:44:04;;;;;;;8.00;4.45;;;3.90;99.90;;;;;;5095226;28;20048;-74
2022/12/06 09:46:41;;;;;;;5.95;4.25;;;4.10;99.90;;;;;;5095063;28;20048;-74
2022/12/06 09:49:34;;;;;;;5.10;3.90;;;4.20;99.90;;;;;;5094666;28;20043;-74
2022/12/06 09:52:24;;;;;;;7.63;3.80;;;4.20;99.90;;;;;;5094642;28;20101;-75
2022/12/06 09:54:53;;;;;;;6.05;3.85;;;4.30;99.90;;;;;;5094674;28;20054;-74
2022/12/06 09:57:43;;;;;;;5.20;3.83;;;4.30;99.90;;;;;;5094095;28;20047;-73
2022/12/06 10:00:13;;;;;;;7.80;3.97;;;4.40;99.90;;;;;;5093208;28;20480;-74
2022/12/06 10:03:22;;;;;;;6.97;3.83;;;4.50;99.90;;;;;;5094271;28;20407;-74
2022/12/06 10:06:02;;;;;;;6.57;4.00;;;4.60;99.90;;;;;;5094413;28;20243;-75
2022/12/06 10:09:06;;;;;;;10.18;3.65;;;4.60;99.90;;;;;;5093590;28;20373;-73
2022/12/06 10:11:43;;;;;;;7.78;3.97;;;4.70;99.90;;;;;;5094270;28;20089;-74
2022/12/06 10:14:46;;;;;;;4.78;3.60;;;4.70;99.90;;;;;;5094454;28;20056;-74
2022/12/06 10:17:44;;;;;;;4.38;3.50;;;4.70;99.90;;;;;;5093958;28;20052;-76
2022/12/06 10:20:29;;;;;;;4.63;3.78;;;4.80;99.90;;;;;;5094247;28;20499;-75
2022/12/06 10:23:16;;;;;;;4.20;3.42;;;4.80;99.90;;;;;;5094075;28;20044;-75
2022/12/06 10:26:05;;;;;;;6.47;3.70;;;4.80;99.90;;;;;;5094335;28;20055;-75
2022/12/06 10:28:41;;;;;;;7.63;3.60;;;4.70;99.90;;;;;;5094303;28;20408;-75
2022/12/06 10:31:29;;;;;;;5.70;3.60;;;4.70;99.90;;;;;;5094059;28;20059;-77
2022/12/06 10:33:59;;;;;;;4.40;3.58;;;4.70;99.90;;;;;;5093993;28;20055;-75
2022/12/06 10:36:43;;;;;;;5.32;3.20;;;5.50;99.90;;;;;;5094325;28;20123;-74
2022/12/06 10:39:26;;;;;;;5.00;3.75;;;4.70;99.90;;;;;;5094078;28;20044;-76
2022/12/06 10:41:56;;;;;;;4.40;3.22;;;4.80;99.90;;;;;;5092322;28;20079;-76
2022/12/06 10:44:46;;;;;;;5.72;3.22;;;4.80;99.90;;;;;;5093951;28;20040;-74
2022/12/06 10:47:20;;;;;;;6.72;4.40;;;4.90;99.90;;;;;;5094097;28;20036;-75
2022/12/06 10:50:07;;;;;;;7.22;4.35;;;5.00;99.90;;;;;;5093894;28;20040;-74
2022/12/06 10:52:37;;;;;;;5.82;3.20;;;5.00;99.90;;;;;;5093844;28;20039;-74
2022/12/06 10:55:09;;;;;;;4.95;3.60;;;5.00;99.90;;;;;;5093863;28;20036;-76
2022/12/06 10:57:50;;;;;;;7.32;3.13;;;5.10;99.90;;;;;;5093704;28;20475;-75
2022/12/06 11:00:20;;;;;;;4.18;3.20;;;5.10;99.90;;;;;;5093588;28;20140;-74
2022/12/06 11:03:07;;;;;;;8.45;3.20;;;5.20;99.90;;;;;;5093511;28;20051;-74
2022/12/06 11:05:47;;;;;;;5.00;3.28;;;5.30;99.90;;;;;;5093625;28;20036;-76
2022/12/06 11:08:22;;;;;;;3.45;2.97;;;5.40;99.90;;;;;;5093628;28;20036;-74
2022/12/06 11:10:50;;;;;;;5.95;3.30;;;5.40;99.90;;;;;;5093691;28;20044;-76
2022/12/06 11:13:29;;;;;;;;;;;5.40;99.90;;;;;;5094040;28;20119;-76
2022/12/06 11:16:14;;;;;;;3.67;2.88;;;5.30;99.90;;;;;;5094221;28;19927;-73
2022/12/06 11:18:41;;;;;;;5.00;3.05;;;5.30;99.90;;;;;;5093647;28;20136;-75
2022/12/06 11:21:31;;;;;;;6.97;3.22;;;5.30;99.90;;;;;;5093497;28;20040;-74
2022/12/06 11:24:24;;;;;;;5.05;3.38;;;5.30;99.90;;;;;;5093327;28;20487;-75
2022/12/06 11:27:21;;;;;;;7.43;3.20;;;5.40;99.90;;;;;;5084901;28;20056;-75
2022/12/06 11:29:49;;;;;;;7.78;3.28;;;5.40;99.90;;;;;;5093438;28;20123;-75
2022/12/06 11:32:15;;;;;;;3.95;3.10;;;5.50;99.90;;;;;;5093382;28;20169;-74
2022/12/06 11:34:51;;;;;;;3.45;2.97;;;5.50;99.90;;;;;;5093738;28;20122;-75
2022/12/06 11:37:21;;;;;;;6.15;3.30;;;5.50;99.90;;;;;;5093366;28;20094;-74
2022/12/06 11:40:04;;;;;;;9.10;2.97;;;5.60;99.90;;;;;;5093297;28;20131;-76
2022/12/06 11:42:29;;;;;;;5.57;3.17;;;5.60;99.90;;;;;;5093107;28;20048;-75
2022/12/06 11:45:30;;;;;;;7.60;3.33;;;6.30;99.90;;;;;;5093354;28;20044;-77
2022/12/06 11:47:58;;;;;;;6.88;3.10;;;5.70;99.90;;;;;;5049864;28;20106;-77
2022/12/06 11:50:27;;;;;;;5.65;3.17;;;5.70;99.90;;;;;;5093161;28;20052;-76
2022/12/06 11:53:02;;;;;;;3.85;2.80;;;5.70;99.90;;;;;;5093158;28;20044;-76
2022/12/06 11:55:34;;;;;;;3.47;2.63;;;5.70;99.90;;;;;;5096757;28;20044;-74
2022/12/06 11:58:08;;;;;;;6.05;2.60;;;5.70;99.90;;;;;;5097157;28;20511;-74
2022/12/06 12:00:34;;;;;;;7.68;3.00;;;5.70;99.90;;;;;;5096348;28;20044;-75
2022/12/06 12:02:59;;;;;;;2.83;2.33;;;5.70;99.90;;;;;;5096769;28;20395;-74
2022/12/06 12:05:33;;;;;;;4.35;2.20;;;5.80;99.90;;;;;;5096691;28;20555;-75
2022/12/06 12:08:00;;;;;;;3.97;2.38;;;5.80;99.90;;;;;;5096931;28;20044;-75
2022/12/06 12:10:35;;;;;;;6.68;2.65;;;5.80;99.90;;;;;;5096549;28;20123;-76
2022/12/06 12:16:14;;;;;;;7.22;2.70;;;5.90;99.90;;;;;;5096932;28;20044;-75
2022/12/06 12:18:48;;;;;;;4.95;2.50;;;5.90;99.90;;;;;;5096462;28;20108;-74
2022/12/06 12:21:14;;;;;;;4.50;2.40;;;5.90;99.90;;;;;;5096590;28;20044;-75
2022/12/06 12:23:45;;;;;;;3.15;2.30;;;6.00;99.90;;;;;;5096198;28;20488;-75
2022/12/06 12:26:13;;;;;;;6.00;2.38;;;6.00;99.90;;;;;;5096013;28;20480;-75
2022/12/06 12:28:41;;;;;;;5.88;2.35;;;6.00;99.90;;;;;;5096059;28;20217;-74
2022/12/06 12:31:17;;;;;;;8.63;2.30;;;6.00;99.90;;;;;;5096100;28;20044;-74
2022/12/06 12:33:43;;;;;;;3.75;2.40;;;6.00;99.90;;;;;;5095147;28;20047;-74
2022/12/06 12:36:29;;;;;;;3.15;2.10;;;6.00;99.90;;;;;;5095951;28;20044;-76
2022/12/06 12:38:59;;;;;;;5.22;2.20;;;6.00;99.90;;;;;;5095442;28;20113;-75
2022/12/06 12:41:38;;;;;;;2.50;1.88;;;5.90;99.90;;;;;;5095834;28;20036;-75
2022/12/06 12:44:22;;;;;;;3.75;2.13;;;5.90;99.90;;;;;;5095881;28;20139;-76
2022/12/06 12:47:16;;;;;;;3.55;2.40;;;6.20;99.90;;;;;;5095905;28;20048;-74
2022/12/06 12:49:41;;;;;;;3.80;2.20;;;5.90;99.90;;;;;;5085988;28;20051;-74
2022/12/06 12:52:36;;;;;;;5.93;2.20;;;5.90;99.90;;;;;;5095650;28;20124;-75
2022/12/06 12:55:22;;;;;;;3.25;2.28;;;6.00;99.90;;;;;;5095806;28;20046;-74
2022/12/06 12:57:53;;;;;;;7.35;2.85;;;6.20;99.90;;;;;;5095646;28;20101;-76
2022/12/06 13:00:21;;;;;;;5.60;2.50;;;6.10;99.90;;;;;;5095497;28;20051;-75
2022/12/06 13:03:02;;;;;;;4.00;2.63;;;6.20;99.90;;;;;;5095585;28;20083;-76
2022/12/06 13:05:30;;;;;;;3.50;2.50;;;6.20;99.90;;;;;;5095180;28;20048;-75
2022/12/06 13:08:13;;;;;;;3.45;2.40;;;6.20;99.90;;;;;;5095447;28;20112;-76
2022/12/06 13:10:43;;;;;;;4.65;3.20;;;6.30;99.90;;;;;;5095688;28;20384;-76
2022/12/06 13:13:17;;;;;;;2.67;2.20;;;6.30;99.90;;;;;;5095714;28;20048;-75
2022/12/06 13:15:48;;;;;;;3.28;2.47;;;6.30;99.90;;;;;;5095467;28;20082;-74
2022/12/06 13:18:28;;;;;;;4.30;2.50;;;6.30;99.90;;;;;;5095304;28;20051;-76
2022/12/06 13:20:57;;;;;;;4.63;2.20;;;6.20;99.90;;;;;;5095357;28;20044;-75
2022/12/06 13:23:27;;;;;;;3.33;2.10;;;6.20;99.90;;;;;;5095227;28;20092;-76
2022/12/06 13:26:28;;;;;;;5.70;2.47;;;6.10;99.90;;;;;;5095015;28;20139;-74
2022/12/06 13:29:02;;;;;;;6.43;2.30;;;6.00;99.90;;;;;;5095243;28;20464;-76
2022/12/06 13:31:34;;;;;;;3.63;2.30;;;5.90;99.90;;;;;;5095514;28;20447;-76
2022/12/06 13:34:05;;;;;;;3.22;2.38;;;5.80;99.90;;;;;;5094834;28;20047;-75
2022/12/06 13:36:32;;;;;;;4.25;2.47;;;5.70;99.90;;;;;;5094536;28;20101;-75
2022/12/06 13:38:58;;;;;;;3.20;2.08;;;5.60;99.90;;;;;;5094857;28;20052;-74
2022/12/06 13:44:50;;;;;;;3.45;2.60;;;5.50;99.90;;;;;;5095231;28;20052;-75
2022/12/06 13:47:27;;;;;;;4.15;2.25;;;5.40;99.90;;;;;;5095127;28;20044;-75